sensor_id;sensor_type;location;lat;lon;timestamp;temperature;humidity
38726;DHT22;24474;48.906;8.808;2023-06-26T00:01:26;20.20;91.10
38726;DHT22;24474;48.906;8.808;2023-06-26T00:03:55;20.30;91.80
38726;DHT22;24474;48.906;8.808;2023-06-26T00:06:20;20.30;90.60
38726;DHT22;24474;48.906;8.808;2023-06-26T00:08:46;20.30;90.80
38726;DHT22;24474;48.906;8.808;2023-06-26T00:11:12;20.30;91.70
38726;DHT22;24474;48.906;8.808;2023-06-26T00:13:37;20.30;90.30
38726;DHT22;24474;48.906;8.808;2023-06-26T00:16:03;20.30;91.40
38726;DHT22;24474;48.906;8.808;2023-06-26T00:18:29;20.30;91.80
38726;DHT22;24474;48.906;8.808;2023-06-26T00:20:55;20.30;92.00
38726;DHT22;24474;48.906;8.808;2023-06-26T00:23:20;20.20;92.20
38726;DHT22;24474;48.906;8.808;2023-06-26T00:25:46;20.10;92.20
38726;DHT22;24474;48.906;8.808;2023-06-26T00:28:12;20.10;92.50
38726;DHT22;24474;48.906;8.808;2023-06-26T00:30:37;20.10;92.70
38726;DHT22;24474;48.906;8.808;2023-06-26T00:33:03;20.00;93.40
38726;DHT22;24474;48.906;8.808;2023-06-26T00:35:29;20.00;93.40
38726;DHT22;24474;48.906;8.808;2023-06-26T00:37:54;20.00;93.60
38726;DHT22;24474;48.906;8.808;2023-06-26T00:40:20;19.90;92.70
38726;DHT22;24474;48.906;8.808;2023-06-26T00:42:46;19.90;93.10
38726;DHT22;24474;48.906;8.808;2023-06-26T00:45:11;19.80;92.90
38726;DHT22;24474;48.906;8.808;2023-06-26T00:47:37;19.80;93.30
38726;DHT22;24474;48.906;8.808;2023-06-26T00:50:04;19.80;93.40
38726;DHT22;24474;48.906;8.808;2023-06-26T00:52:31;19.80;93.50
38726;DHT22;24474;48.906;8.808;2023-06-26T00:54:57;19.70;93.90
38726;DHT22;24474;48.906;8.808;2023-06-26T00:57:23;19.70;93.60
38726;DHT22;24474;48.906;8.808;2023-06-26T00:59:50;19.60;94.60
38726;DHT22;24474;48.906;8.808;2023-06-26T01:02:15;19.60;94.20
38726;DHT22;24474;48.906;8.808;2023-06-26T01:04:54;19.60;94.50
38726;DHT22;24474;48.906;8.808;2023-06-26T01:07:21;19.50;94.50
38726;DHT22;24474;48.906;8.808;2023-06-26T01:09:48;19.50;94.60
38726;DHT22;24474;48.906;8.808;2023-06-26T01:12:14;19.50;94.40
38726;DHT22;24474;48.906;8.808;2023-06-26T01:14:40;19.40;95.00
38726;DHT22;24474;48.906;8.808;2023-06-26T01:17:07;19.40;94.60
38726;DHT22;24474;48.906;8.808;2023-06-26T01:19:37;19.30;94.60
38726;DHT22;24474;48.906;8.808;2023-06-26T01:22:58;19.30;94.80
38726;DHT22;24474;48.906;8.808;2023-06-26T01:25:44;19.20;95.00
38726;DHT22;24474;48.906;8.808;2023-06-26T01:28:14;19.20;95.40
38726;DHT22;24474;48.906;8.808;2023-06-26T01:30:44;19.20;95.40
38726;DHT22;24474;48.906;8.808;2023-06-26T01:33:11;19.10;95.40
38726;DHT22;24474;48.906;8.808;2023-06-26T01:35:38;19.10;95.30
38726;DHT22;24474;48.906;8.808;2023-06-26T01:38:17;19.10;95.20
38726;DHT22;24474;48.906;8.808;2023-06-26T01:40:43;19.10;95.40
38726;DHT22;24474;48.906;8.808;2023-06-26T01:46:03;19.00;95.50
38726;DHT22;24474;48.906;8.808;2023-06-26T01:48:42;18.90;95.60
38726;DHT22;24474;48.906;8.808;2023-06-26T01:51:12;18.90;96.00
38726;DHT22;24474;48.906;8.808;2023-06-26T01:53:45;19.00;95.90
38726;DHT22;24474;48.906;8.808;2023-06-26T01:56:13;18.90;95.70
38726;DHT22;24474;48.906;8.808;2023-06-26T01:58:44;18.90;96.30
38726;DHT22;24474;48.906;8.808;2023-06-26T02:01:11;18.80;96.20
38726;DHT22;24474;48.906;8.808;2023-06-26T02:03:40;18.80;96.30
38726;DHT22;24474;48.906;8.808;2023-06-26T02:06:05;18.80;96.30
38726;DHT22;24474;48.906;8.808;2023-06-26T02:08:31;18.80;96.40
38726;DHT22;24474;48.906;8.808;2023-06-26T02:10:57;18.70;96.30
38726;DHT22;24474;48.906;8.808;2023-06-26T02:13:22;18.70;96.40
38726;DHT22;24474;48.906;8.808;2023-06-26T02:15:51;18.60;96.50
38726;DHT22;24474;48.906;8.808;2023-06-26T02:18:17;18.60;96.40
38726;DHT22;24474;48.906;8.808;2023-06-26T02:20:43;18.60;96.40
38726;DHT22;24474;48.906;8.808;2023-06-26T02:23:09;18.50;96.40
38726;DHT22;24474;48.906;8.808;2023-06-26T02:25:35;18.50;96.50
38726;DHT22;24474;48.906;8.808;2023-06-26T02:28:00;18.50;96.70
38726;DHT22;24474;48.906;8.808;2023-06-26T02:30:26;18.50;96.60
38726;DHT22;24474;48.906;8.808;2023-06-26T02:32:52;18.50;96.80
38726;DHT22;24474;48.906;8.808;2023-06-26T02:35:17;18.40;96.80
38726;DHT22;24474;48.906;8.808;2023-06-26T02:37:43;18.40;97.00
38726;DHT22;24474;48.906;8.808;2023-06-26T02:40:13;18.40;97.00
38726;DHT22;24474;48.906;8.808;2023-06-26T02:42:38;18.40;97.20
38726;DHT22;24474;48.906;8.808;2023-06-26T02:45:07;18.30;97.40
38726;DHT22;24474;48.906;8.808;2023-06-26T02:47:33;18.30;97.40
38726;DHT22;24474;48.906;8.808;2023-06-26T02:49:58;18.30;97.50
38726;DHT22;24474;48.906;8.808;2023-06-26T02:52:27;18.30;97.60
38726;DHT22;24474;48.906;8.808;2023-06-26T02:54:54;18.20;97.50
38726;DHT22;24474;48.906;8.808;2023-06-26T02:57:20;18.20;97.40
38726;DHT22;24474;48.906;8.808;2023-06-26T02:59:46;18.10;97.90
38726;DHT22;24474;48.906;8.808;2023-06-26T03:02:11;18.10;97.90
38726;DHT22;24474;48.906;8.808;2023-06-26T03:04:37;18.10;97.80
38726;DHT22;24474;48.906;8.808;2023-06-26T03:07:03;18.10;97.60
38726;DHT22;24474;48.906;8.808;2023-06-26T03:09:29;18.00;97.70
38726;DHT22;24474;48.906;8.808;2023-06-26T03:11:55;18.00;97.60
38726;DHT22;24474;48.906;8.808;2023-06-26T03:14:21;18.00;97.90
38726;DHT22;24474;48.906;8.808;2023-06-26T03:16:47;18.00;98.00
38726;DHT22;24474;48.906;8.808;2023-06-26T03:19:13;18.00;98.20
38726;DHT22;24474;48.906;8.808;2023-06-26T03:21:38;18.00;98.20
38726;DHT22;24474;48.906;8.808;2023-06-26T03:24:04;17.90;98.40
38726;DHT22;24474;48.906;8.808;2023-06-26T03:26:30;17.90;98.40
38726;DHT22;24474;48.906;8.808;2023-06-26T03:28:55;17.90;98.60
38726;DHT22;24474;48.906;8.808;2023-06-26T03:31:21;17.80;98.50
38726;DHT22;24474;48.906;8.808;2023-06-26T03:33:47;17.80;98.70
38726;DHT22;24474;48.906;8.808;2023-06-26T03:36:13;17.80;98.70
38726;DHT22;24474;48.906;8.808;2023-06-26T03:38:39;17.80;98.70
38726;DHT22;24474;48.906;8.808;2023-06-26T03:41:06;17.70;98.90
38726;DHT22;24474;48.906;8.808;2023-06-26T03:43:32;17.80;98.80
38726;DHT22;24474;48.906;8.808;2023-06-26T03:45:57;17.70;99.00
38726;DHT22;24474;48.906;8.808;2023-06-26T03:48:23;17.70;99.10
38726;DHT22;24474;48.906;8.808;2023-06-26T03:50:48;17.70;99.10
38726;DHT22;24474;48.906;8.808;2023-06-26T03:53:14;17.70;99.10
38726;DHT22;24474;48.906;8.808;2023-06-26T03:55:40;17.70;98.90
38726;DHT22;24474;48.906;8.808;2023-06-26T03:58:05;17.60;99.20
38726;DHT22;24474;48.906;8.808;2023-06-26T04:00:31;17.70;98.90
38726;DHT22;24474;48.906;8.808;2023-06-26T04:02:58;17.70;98.90
38726;DHT22;24474;48.906;8.808;2023-06-26T04:05:23;17.70;99.50
38726;DHT22;24474;48.906;8.808;2023-06-26T04:07:50;17.70;99.80
38726;DHT22;24474;48.906;8.808;2023-06-26T04:10:19;17.70;99.60
38726;DHT22;24474;48.906;8.808;2023-06-26T04:12:56;17.70;99.50
38726;DHT22;24474;48.906;8.808;2023-06-26T04:15:23;17.70;99.40
38726;DHT22;24474;48.906;8.808;2023-06-26T04:17:49;17.70;99.60
38726;DHT22;24474;48.906;8.808;2023-06-26T04:20:19;17.70;99.80
38726;DHT22;24474;48.906;8.808;2023-06-26T04:22:45;17.70;99.90
38726;DHT22;24474;48.906;8.808;2023-06-26T04:25:14;17.70;99.90
38726;DHT22;24474;48.906;8.808;2023-06-26T04:27:40;17.70;99.90
38726;DHT22;24474;48.906;8.808;2023-06-26T04:30:08;17.70;99.90
38726;DHT22;24474;48.906;8.808;2023-06-26T04:32:35;17.70;99.90
38726;DHT22;24474;48.906;8.808;2023-06-26T04:35:03;17.70;99.90
38726;DHT22;24474;48.906;8.808;2023-06-26T04:37:30;17.70;99.90
38726;DHT22;24474;48.906;8.808;2023-06-26T04:39:55;17.80;99.90
38726;DHT22;24474;48.906;8.808;2023-06-26T04:42:25;17.80;99.90
38726;DHT22;24474;48.906;8.808;2023-06-26T04:44:51;17.80;99.90
38726;DHT22;24474;48.906;8.808;2023-06-26T04:47:19;17.80;99.90
38726;DHT22;24474;48.906;8.808;2023-06-26T04:49:47;17.90;99.90
38726;DHT22;24474;48.906;8.808;2023-06-26T04:52:15;18.00;99.90
38726;DHT22;24474;48.906;8.808;2023-06-26T04:54:41;18.00;99.90
38726;DHT22;24474;48.906;8.808;2023-06-26T04:57:06;18.10;99.90
38726;DHT22;24474;48.906;8.808;2023-06-26T04:59:34;18.10;99.80
38726;DHT22;24474;48.906;8.808;2023-06-26T05:01:59;18.20;99.90
38726;DHT22;24474;48.906;8.808;2023-06-26T05:04:26;18.20;99.90
38726;DHT22;24474;48.906;8.808;2023-06-26T05:06:51;18.20;99.90
38726;DHT22;24474;48.906;8.808;2023-06-26T05:09:20;18.30;99.90
38726;DHT22;24474;48.906;8.808;2023-06-26T05:11:46;18.30;99.90
38726;DHT22;24474;48.906;8.808;2023-06-26T05:14:11;18.30;99.90
38726;DHT22;24474;48.906;8.808;2023-06-26T05:16:38;18.40;99.90
38726;DHT22;24474;48.906;8.808;2023-06-26T05:19:04;18.50;99.90
38726;DHT22;24474;48.906;8.808;2023-06-26T05:21:30;18.50;99.90
38726;DHT22;24474;48.906;8.808;2023-06-26T05:23:56;18.50;99.90
38726;DHT22;24474;48.906;8.808;2023-06-26T05:26:22;18.60;99.90
38726;DHT22;24474;48.906;8.808;2023-06-26T05:28:48;18.60;99.90
38726;DHT22;24474;48.906;8.808;2023-06-26T05:31:17;18.70;99.90
38726;DHT22;24474;48.906;8.808;2023-06-26T05:33:44;18.70;99.90
38726;DHT22;24474;48.906;8.808;2023-06-26T05:36:12;18.70;99.90
38726;DHT22;24474;48.906;8.808;2023-06-26T05:38:38;18.80;99.90
38726;DHT22;24474;48.906;8.808;2023-06-26T05:41:04;18.90;99.90
38726;DHT22;24474;48.906;8.808;2023-06-26T05:43:30;18.90;99.90
38726;DHT22;24474;48.906;8.808;2023-06-26T05:45:56;19.00;99.90
38726;DHT22;24474;48.906;8.808;2023-06-26T05:48:23;19.10;99.90
38726;DHT22;24474;48.906;8.808;2023-06-26T05:50:49;19.20;99.90
38726;DHT22;24474;48.906;8.808;2023-06-26T05:53:15;19.30;99.90
38726;DHT22;24474;48.906;8.808;2023-06-26T05:55:41;19.50;99.90
38726;DHT22;24474;48.906;8.808;2023-06-26T05:58:10;19.80;99.90
38726;DHT22;24474;48.906;8.808;2023-06-26T06:00:36;20.10;99.90
38726;DHT22;24474;48.906;8.808;2023-06-26T06:03:02;20.40;99.90
38726;DHT22;24474;48.906;8.808;2023-06-26T06:05:29;20.60;99.50
38726;DHT22;24474;48.906;8.808;2023-06-26T06:07:58;20.80;98.80
38726;DHT22;24474;48.906;8.808;2023-06-26T06:10:24;21.00;98.10
38726;DHT22;24474;48.906;8.808;2023-06-26T06:12:49;21.10;97.90
38726;DHT22;24474;48.906;8.808;2023-06-26T06:15:18;21.10;97.90
38726;DHT22;24474;48.906;8.808;2023-06-26T06:17:45;21.10;98.10
38726;DHT22;24474;48.906;8.808;2023-06-26T06:20:10;21.00;99.00
38726;DHT22;24474;48.906;8.808;2023-06-26T06:22:36;21.10;99.70
38726;DHT22;24474;48.906;8.808;2023-06-26T06:25:02;21.10;99.50
38726;DHT22;24474;48.906;8.808;2023-06-26T06:27:29;21.10;99.30
38726;DHT22;24474;48.906;8.808;2023-06-26T06:29:54;21.10;98.90
38726;DHT22;24474;48.906;8.808;2023-06-26T06:32:20;21.20;99.00
38726;DHT22;24474;48.906;8.808;2023-06-26T06:34:46;21.20;98.80
38726;DHT22;24474;48.906;8.808;2023-06-26T06:37:12;21.20;98.50
38726;DHT22;24474;48.906;8.808;2023-06-26T06:39:37;21.20;98.40
38726;DHT22;24474;48.906;8.808;2023-06-26T06:42:03;21.30;98.20
38726;DHT22;24474;48.906;8.808;2023-06-26T06:44:29;21.40;98.20
38726;DHT22;24474;48.906;8.808;2023-06-26T06:46:56;21.50;98.00
38726;DHT22;24474;48.906;8.808;2023-06-26T06:49:22;21.50;97.60
38726;DHT22;24474;48.906;8.808;2023-06-26T06:51:47;21.50;97.60
38726;DHT22;24474;48.906;8.808;2023-06-26T06:54:15;21.50;97.40
38726;DHT22;24474;48.906;8.808;2023-06-26T06:56:40;21.60;97.30
38726;DHT22;24474;48.906;8.808;2023-06-26T06:59:06;21.70;97.30
38726;DHT22;24474;48.906;8.808;2023-06-26T07:01:31;21.80;96.90
38726;DHT22;24474;48.906;8.808;2023-06-26T07:03:57;21.80;96.70
38726;DHT22;24474;48.906;8.808;2023-06-26T07:06:23;21.90;96.80
38726;DHT22;24474;48.906;8.808;2023-06-26T07:08:48;22.00;97.20
38726;DHT22;24474;48.906;8.808;2023-06-26T07:11:15;22.10;96.40
38726;DHT22;24474;48.906;8.808;2023-06-26T07:13:40;22.20;96.50
38726;DHT22;24474;48.906;8.808;2023-06-26T07:16:06;22.30;96.10
38726;DHT22;24474;48.906;8.808;2023-06-26T07:18:32;22.40;96.50
38726;DHT22;24474;48.906;8.808;2023-06-26T07:20:57;22.50;96.90
38726;DHT22;24474;48.906;8.808;2023-06-26T07:23:23;22.60;96.50
38726;DHT22;24474;48.906;8.808;2023-06-26T07:25:49;22.70;96.00
38726;DHT22;24474;48.906;8.808;2023-06-26T07:28:14;22.80;96.00
38726;DHT22;24474;48.906;8.808;2023-06-26T07:30:40;22.90;95.80
38726;DHT22;24474;48.906;8.808;2023-06-26T07:33:06;23.10;95.20
38726;DHT22;24474;48.906;8.808;2023-06-26T07:35:31;23.20;94.80
38726;DHT22;24474;48.906;8.808;2023-06-26T07:37:57;23.30;94.40
38726;DHT22;24474;48.906;8.808;2023-06-26T07:40:23;23.50;94.30
38726;DHT22;24474;48.906;8.808;2023-06-26T07:42:48;23.60;94.40
38726;DHT22;24474;48.906;8.808;2023-06-26T07:45:14;23.60;94.30
38726;DHT22;24474;48.906;8.808;2023-06-26T07:47:40;23.70;93.80
38726;DHT22;24474;48.906;8.808;2023-06-26T07:50:06;23.80;93.80
38726;DHT22;24474;48.906;8.808;2023-06-26T07:52:32;24.00;94.40
38726;DHT22;24474;48.906;8.808;2023-06-26T07:54:58;24.20;94.20
38726;DHT22;24474;48.906;8.808;2023-06-26T07:57:24;24.20;92.60
38726;DHT22;24474;48.906;8.808;2023-06-26T07:59:50;24.30;92.70
38726;DHT22;24474;48.906;8.808;2023-06-26T08:02:16;24.40;92.30
38726;DHT22;24474;48.906;8.808;2023-06-26T08:04:43;24.50;93.30
38726;DHT22;24474;48.906;8.808;2023-06-26T08:07:08;24.60;92.10
38726;DHT22;24474;48.906;8.808;2023-06-26T08:09:34;24.70;92.60
38726;DHT22;24474;48.906;8.808;2023-06-26T08:12:00;24.80;92.10
38726;DHT22;24474;48.906;8.808;2023-06-26T08:14:25;24.80;92.00
38726;DHT22;24474;48.906;8.808;2023-06-26T08:16:51;25.00;91.60
38726;DHT22;24474;48.906;8.808;2023-06-26T08:19:18;25.00;91.90
38726;DHT22;24474;48.906;8.808;2023-06-26T08:21:45;25.20;91.60
38726;DHT22;24474;48.906;8.808;2023-06-26T08:24:11;25.20;91.80
38726;DHT22;24474;48.906;8.808;2023-06-26T08:26:38;25.20;91.20
38726;DHT22;24474;48.906;8.808;2023-06-26T08:29:05;25.30;91.80
38726;DHT22;24474;48.906;8.808;2023-06-26T08:31:34;25.40;91.00
38726;DHT22;24474;48.906;8.808;2023-06-26T08:34:04;25.40;90.90
38726;DHT22;24474;48.906;8.808;2023-06-26T08:36:33;25.50;90.70
38726;DHT22;24474;48.906;8.808;2023-06-26T08:38:58;25.60;90.90
38726;DHT22;24474;48.906;8.808;2023-06-26T08:41:24;25.70;90.70
38726;DHT22;24474;48.906;8.808;2023-06-26T08:43:50;25.80;90.70
38726;DHT22;24474;48.906;8.808;2023-06-26T08:46:18;25.80;91.30
38726;DHT22;24474;48.906;8.808;2023-06-26T08:48:49;25.90;90.40
38726;DHT22;24474;48.906;8.808;2023-06-26T08:51:17;26.10;90.40
38726;DHT22;24474;48.906;8.808;2023-06-26T08:54:00;26.20;90.20
38726;DHT22;24474;48.906;8.808;2023-06-26T08:56:32;26.30;90.30
38726;DHT22;24474;48.906;8.808;2023-06-26T08:59:00;26.50;90.00
38726;DHT22;24474;48.906;8.808;2023-06-26T09:01:26;26.60;89.50
38726;DHT22;24474;48.906;8.808;2023-06-26T09:03:55;26.70;89.30
38726;DHT22;24474;48.906;8.808;2023-06-26T09:06:20;26.70;88.50
38726;DHT22;24474;48.906;8.808;2023-06-26T09:08:46;26.80;89.60
38726;DHT22;24474;48.906;8.808;2023-06-26T09:11:12;26.80;89.10
38726;DHT22;24474;48.906;8.808;2023-06-26T09:13:38;26.80;89.70
38726;DHT22;24474;48.906;8.808;2023-06-26T09:16:09;26.80;90.10
38726;DHT22;24474;48.906;8.808;2023-06-26T09:18:35;26.90;90.20
38726;DHT22;24474;48.906;8.808;2023-06-26T09:21:07;26.90;89.80
38726;DHT22;24474;48.906;8.808;2023-06-26T09:23:34;26.90;90.10
38726;DHT22;24474;48.906;8.808;2023-06-26T09:26:05;27.00;90.50
38726;DHT22;24474;48.906;8.808;2023-06-26T09:28:32;27.10;90.20
38726;DHT22;24474;48.906;8.808;2023-06-26T09:31:05;27.20;90.20
38726;DHT22;24474;48.906;8.808;2023-06-26T09:33:36;27.30;90.00
38726;DHT22;24474;48.906;8.808;2023-06-26T09:36:04;27.30;89.50
38726;DHT22;24474;48.906;8.808;2023-06-26T09:38:30;27.30;90.20
38726;DHT22;24474;48.906;8.808;2023-06-26T09:40:56;27.20;90.30
38726;DHT22;24474;48.906;8.808;2023-06-26T09:43:21;27.20;90.20
38726;DHT22;24474;48.906;8.808;2023-06-26T09:45:47;27.10;90.40
38726;DHT22;24474;48.906;8.808;2023-06-26T09:48:14;27.10;90.60
38726;DHT22;24474;48.906;8.808;2023-06-26T09:50:41;27.10;90.20
38726;DHT22;24474;48.906;8.808;2023-06-26T09:53:09;27.00;89.70
38726;DHT22;24474;48.906;8.808;2023-06-26T09:55:35;27.10;90.40
38726;DHT22;24474;48.906;8.808;2023-06-26T09:58:03;27.10;89.70
38726;DHT22;24474;48.906;8.808;2023-06-26T10:00:32;27.30;89.80
38726;DHT22;24474;48.906;8.808;2023-06-26T10:03:02;27.20;89.60
38726;DHT22;24474;48.906;8.808;2023-06-26T10:05:28;27.20;90.20
38726;DHT22;24474;48.906;8.808;2023-06-26T10:07:54;27.20;90.40
38726;DHT22;24474;48.906;8.808;2023-06-26T10:10:23;27.30;90.70
38726;DHT22;24474;48.906;8.808;2023-06-26T10:12:52;27.30;90.50
38726;DHT22;24474;48.906;8.808;2023-06-26T10:15:20;27.10;90.70
38726;DHT22;24474;48.906;8.808;2023-06-26T10:17:47;27.10;91.00
38726;DHT22;24474;48.906;8.808;2023-06-26T10:20:14;27.10;90.60
38726;DHT22;24474;48.906;8.808;2023-06-26T10:22:45;27.10;91.50
38726;DHT22;24474;48.906;8.808;2023-06-26T10:25:16;27.10;91.10
38726;DHT22;24474;48.906;8.808;2023-06-26T10:27:50;27.20;91.20
38726;DHT22;24474;48.906;8.808;2023-06-26T10:30:22;27.20;91.50
38726;DHT22;24474;48.906;8.808;2023-06-26T10:32:49;27.30;91.10
38726;DHT22;24474;48.906;8.808;2023-06-26T10:35:15;27.20;91.60
38726;DHT22;24474;48.906;8.808;2023-06-26T10:37:46;27.10;91.50
38726;DHT22;24474;48.906;8.808;2023-06-26T10:40:13;27.10;91.60
38726;DHT22;24474;48.906;8.808;2023-06-26T10:42:39;27.00;91.70
38726;DHT22;24474;48.906;8.808;2023-06-26T10:45:28;27.00;91.80
38726;DHT22;24474;48.906;8.808;2023-06-26T10:47:53;27.00;92.10
38726;DHT22;24474;48.906;8.808;2023-06-26T10:50:27;27.10;92.40
38726;DHT22;24474;48.906;8.808;2023-06-26T10:56:05;27.20;91.90
38726;DHT22;24474;48.906;8.808;2023-06-26T10:58:41;27.20;92.00
38726;DHT22;24474;48.906;8.808;2023-06-26T11:01:23;27.20;91.90
38726;DHT22;24474;48.906;8.808;2023-06-26T11:06:28;27.30;91.90
38726;DHT22;24474;48.906;8.808;2023-06-26T11:09:09;27.40;92.20
38726;DHT22;24474;48.906;8.808;2023-06-26T11:14:20;27.30;92.20
38726;DHT22;24474;48.906;8.808;2023-06-26T11:16:46;27.30;92.40
38726;DHT22;24474;48.906;8.808;2023-06-26T11:19:13;27.30;92.80
38726;DHT22;24474;48.906;8.808;2023-06-26T11:21:40;27.30;92.60
38726;DHT22;24474;48.906;8.808;2023-06-26T11:24:11;27.30;92.50
38726;DHT22;24474;48.906;8.808;2023-06-26T11:26:44;27.30;92.50
38726;DHT22;24474;48.906;8.808;2023-06-26T11:29:13;27.30;92.60
38726;DHT22;24474;48.906;8.808;2023-06-26T11:31:40;27.40;92.90
38726;DHT22;24474;48.906;8.808;2023-06-26T11:34:09;27.40;92.40
38726;DHT22;24474;48.906;8.808;2023-06-26T11:36:40;27.40;92.40
38726;DHT22;24474;48.906;8.808;2023-06-26T11:39:08;27.40;92.30
38726;DHT22;24474;48.906;8.808;2023-06-26T11:41:35;27.30;92.60
38726;DHT22;24474;48.906;8.808;2023-06-26T11:44:02;27.30;93.10
38726;DHT22;24474;48.906;8.808;2023-06-26T11:46:29;27.30;92.60
38726;DHT22;24474;48.906;8.808;2023-06-26T11:48:55;27.20;92.40
38726;DHT22;24474;48.906;8.808;2023-06-26T11:51:21;27.20;93.00
38726;DHT22;24474;48.906;8.808;2023-06-26T11:53:47;27.20;93.20
38726;DHT22;24474;48.906;8.808;2023-06-26T11:56:17;27.20;93.20
38726;DHT22;24474;48.906;8.808;2023-06-26T11:59:15;27.30;93.00
38726;DHT22;24474;48.906;8.808;2023-06-26T12:01:43;27.40;93.10
38726;DHT22;24474;48.906;8.808;2023-06-26T12:04:16;27.40;92.50
38726;DHT22;24474;48.906;8.808;2023-06-26T12:06:42;27.40;92.60
38726;DHT22;24474;48.906;8.808;2023-06-26T12:09:11;27.40;92.40
38726;DHT22;24474;48.906;8.808;2023-06-26T12:11:43;27.40;92.00
38726;DHT22;24474;48.906;8.808;2023-06-26T12:14:10;27.40;91.70
38726;DHT22;24474;48.906;8.808;2023-06-26T12:16:36;27.40;91.50
38726;DHT22;24474;48.906;8.808;2023-06-26T12:19:07;27.40;91.60
38726;DHT22;24474;48.906;8.808;2023-06-26T12:24:09;27.40;91.40
38726;DHT22;24474;48.906;8.808;2023-06-26T12:26:35;27.50;91.20
38726;DHT22;24474;48.906;8.808;2023-06-26T12:29:05;27.50;91.40
38726;DHT22;24474;48.906;8.808;2023-06-26T12:31:31;27.60;91.10
38726;DHT22;24474;48.906;8.808;2023-06-26T12:33:57;27.50;90.90
38726;DHT22;24474;48.906;8.808;2023-06-26T12:36:23;27.50;91.10
38726;DHT22;24474;48.906;8.808;2023-06-26T12:38:49;27.60;90.50
38726;DHT22;24474;48.906;8.808;2023-06-26T12:41:16;27.60;90.00
38726;DHT22;24474;48.906;8.808;2023-06-26T12:43:42;27.50;90.10
38726;DHT22;24474;48.906;8.808;2023-06-26T12:46:08;27.50;89.50
38726;DHT22;24474;48.906;8.808;2023-06-26T12:48:44;27.50;88.90
38726;DHT22;24474;48.906;8.808;2023-06-26T12:51:13;27.50;90.00
38726;DHT22;24474;48.906;8.808;2023-06-26T12:53:40;27.50;90.20
38726;DHT22;24474;48.906;8.808;2023-06-26T12:56:09;27.60;89.40
38726;DHT22;24474;48.906;8.808;2023-06-26T12:58:35;27.70;89.50
38726;DHT22;24474;48.906;8.808;2023-06-26T13:01:06;27.80;88.80
38726;DHT22;24474;48.906;8.808;2023-06-26T13:03:45;27.90;87.20
38726;DHT22;24474;48.906;8.808;2023-06-26T13:06:11;27.80;87.20
38726;DHT22;24474;48.906;8.808;2023-06-26T13:08:37;27.80;86.20
38726;DHT22;24474;48.906;8.808;2023-06-26T13:11:03;27.90;85.50
38726;DHT22;24474;48.906;8.808;2023-06-26T13:13:28;27.90;85.60
38726;DHT22;24474;48.906;8.808;2023-06-26T13:15:54;27.80;84.90
38726;DHT22;24474;48.906;8.808;2023-06-26T13:18:20;27.80;84.50
38726;DHT22;24474;48.906;8.808;2023-06-26T13:20:46;27.60;84.40
38726;DHT22;24474;48.906;8.808;2023-06-26T13:23:12;27.70;83.70
38726;DHT22;24474;48.906;8.808;2023-06-26T13:25:37;27.70;85.20
38726;DHT22;24474;48.906;8.808;2023-06-26T13:28:03;27.80;83.80
38726;DHT22;24474;48.906;8.808;2023-06-26T13:30:29;27.80;83.00
38726;DHT22;24474;48.906;8.808;2023-06-26T13:32:55;27.80;83.40
38726;DHT22;24474;48.906;8.808;2023-06-26T13:35:21;27.80;84.10
38726;DHT22;24474;48.906;8.808;2023-06-26T13:37:46;27.90;83.70
38726;DHT22;24474;48.906;8.808;2023-06-26T13:40:12;27.90;82.70
38726;DHT22;24474;48.906;8.808;2023-06-26T13:42:38;27.90;82.60
38726;DHT22;24474;48.906;8.808;2023-06-26T13:45:05;27.80;82.70
38726;DHT22;24474;48.906;8.808;2023-06-26T13:47:31;27.80;83.50
38726;DHT22;24474;48.906;8.808;2023-06-26T13:49:56;27.90;84.10
38726;DHT22;24474;48.906;8.808;2023-06-26T13:52:23;27.90;84.20
38726;DHT22;24474;48.906;8.808;2023-06-26T13:54:48;28.00;83.20
38726;DHT22;24474;48.906;8.808;2023-06-26T13:57:14;27.90;83.50
38726;DHT22;24474;48.906;8.808;2023-06-26T13:59:40;28.00;83.30
38726;DHT22;24474;48.906;8.808;2023-06-26T14:02:09;28.00;84.00
38726;DHT22;24474;48.906;8.808;2023-06-26T14:04:35;28.00;84.90
38726;DHT22;24474;48.906;8.808;2023-06-26T14:07:02;28.00;82.80
38726;DHT22;24474;48.906;8.808;2023-06-26T14:09:28;28.00;82.50
38726;DHT22;24474;48.906;8.808;2023-06-26T14:11:54;28.00;84.00
38726;DHT22;24474;48.906;8.808;2023-06-26T14:14:19;28.10;83.80
38726;DHT22;24474;48.906;8.808;2023-06-26T14:16:45;28.10;82.70
38726;DHT22;24474;48.906;8.808;2023-06-26T14:19:16;28.10;83.00
38726;DHT22;24474;48.906;8.808;2023-06-26T14:21:44;28.10;82.90
38726;DHT22;24474;48.906;8.808;2023-06-26T14:24:10;28.00;83.00
38726;DHT22;24474;48.906;8.808;2023-06-26T14:26:36;27.90;82.20
38726;DHT22;24474;48.906;8.808;2023-06-26T14:29:02;27.90;82.90
38726;DHT22;24474;48.906;8.808;2023-06-26T14:31:28;28.00;82.20
38726;DHT22;24474;48.906;8.808;2023-06-26T14:33:54;28.10;82.70
38726;DHT22;24474;48.906;8.808;2023-06-26T14:36:19;28.20;83.20
38726;DHT22;24474;48.906;8.808;2023-06-26T14:38:45;28.10;80.10
38726;DHT22;24474;48.906;8.808;2023-06-26T14:41:11;28.00;80.60
38726;DHT22;24474;48.906;8.808;2023-06-26T14:43:38;27.90;80.50
38726;DHT22;24474;48.906;8.808;2023-06-26T14:46:04;28.00;80.80
38726;DHT22;24474;48.906;8.808;2023-06-26T14:48:30;27.90;82.40
38726;DHT22;24474;48.906;8.808;2023-06-26T14:50:55;28.00;81.80
38726;DHT22;24474;48.906;8.808;2023-06-26T14:53:21;28.10;83.10
38726;DHT22;24474;48.906;8.808;2023-06-26T14:55:47;28.10;81.20
38726;DHT22;24474;48.906;8.808;2023-06-26T14:58:12;28.10;80.60
38726;DHT22;24474;48.906;8.808;2023-06-26T15:00:39;28.00;81.00
38726;DHT22;24474;48.906;8.808;2023-06-26T15:03:05;28.00;80.90
38726;DHT22;24474;48.906;8.808;2023-06-26T15:05:37;28.00;81.20
38726;DHT22;24474;48.906;8.808;2023-06-26T15:08:10;28.00;81.80
38726;DHT22;24474;48.906;8.808;2023-06-26T15:10:36;27.90;81.00
38726;DHT22;24474;48.906;8.808;2023-06-26T15:13:02;27.90;81.60
38726;DHT22;24474;48.906;8.808;2023-06-26T15:15:27;27.90;81.90
38726;DHT22;24474;48.906;8.808;2023-06-26T15:17:53;27.90;82.00
38726;DHT22;24474;48.906;8.808;2023-06-26T15:20:20;27.90;80.90
38726;DHT22;24474;48.906;8.808;2023-06-26T15:22:46;27.70;81.20
38726;DHT22;24474;48.906;8.808;2023-06-26T15:25:12;27.60;80.70
38726;DHT22;24474;48.906;8.808;2023-06-26T15:27:37;27.60;81.50
38726;DHT22;24474;48.906;8.808;2023-06-26T15:30:05;27.50;81.90
38726;DHT22;24474;48.906;8.808;2023-06-26T15:32:31;27.50;80.40
38726;DHT22;24474;48.906;8.808;2023-06-26T15:35:03;27.40;80.10
38726;DHT22;24474;48.906;8.808;2023-06-26T15:37:29;27.40;79.60
38726;DHT22;24474;48.906;8.808;2023-06-26T15:39:56;27.40;79.20
38726;DHT22;24474;48.906;8.808;2023-06-26T15:42:29;27.40;79.70
38726;DHT22;24474;48.906;8.808;2023-06-26T15:44:55;27.40;79.00